createdAt,value
2023-07-27T00:00:01.845Z,16.19
2023-07-27T00:05:01.809Z,16.16
2023-07-27T00:10:02.471Z,16.14
2023-07-27T00:15:02.259Z,16.06
2023-07-27T00:20:02.542Z,16.08
2023-07-27T00:25:02.504Z,16.02
2023-07-27T00:30:02.399Z,16
2023-07-27T00:35:01.822Z,16
2023-07-27T00:40:01.805Z,16.03
2023-07-27T00:45:01.844Z,16.11
2023-07-27T00:50:01.460Z,16.19
2023-07-27T00:55:02.182Z,16.25
2023-07-27T01:00:01.393Z,16.36
2023-07-27T01:05:01.936Z,16.37
2023-07-27T01:10:01.458Z,16.3
2023-07-27T01:15:01.921Z,16.29
2023-07-27T01:20:01.602Z,16.21
2023-07-27T01:25:02.239Z,16.21
2023-07-27T01:30:01.665Z,16.14
2023-07-27T01:35:02.244Z,16.12
2023-07-27T01:40:01.791Z,16.1
2023-07-27T01:45:01.788Z,16.04
2023-07-27T01:50:01.581Z,16.12
2023-07-27T01:55:02.124Z,16.22
2023-07-27T02:00:02.063Z,16.28
2023-07-27T02:05:01.669Z,16.31
2023-07-27T02:10:01.684Z,16.31
2023-07-27T02:15:02.246Z,16.29
2023-07-27T02:20:01.507Z,16.36
2023-07-27T02:25:01.974Z,16.48
2023-07-27T02:30:01.480Z,16.4
2023-07-27T02:35:01.735Z,16.32
2023-07-27T02:40:01.597Z,16.16
2023-07-27T02:45:01.536Z,16.04
2023-07-27T02:50:01.736Z,15.91
2023-07-27T02:55:01.775Z,15.77
2023-07-27T03:00:02.319Z,15.57
2023-07-27T03:05:01.980Z,15.36
2023-07-27T03:10:01.820Z,15.11
2023-07-27T03:15:02.357Z,14.83
2023-07-27T03:20:01.348Z,14.64
2023-07-27T03:25:01.881Z,14.43
2023-07-27T03:30:02.960Z,14.33
2023-07-27T03:35:01.338Z,14.26
2023-07-27T03:40:01.760Z,14.28
2023-07-27T03:45:01.514Z,14.25
2023-07-27T03:50:01.508Z,14.19
2023-07-27T03:55:01.682Z,14.27
2023-07-27T04:00:01.895Z,14.28
2023-07-27T04:05:01.960Z,14.41
2023-07-27T04:10:02.212Z,14.38
2023-07-27T04:15:01.306Z,14.37
2023-07-27T04:20:01.622Z,14.28
2023-07-27T04:25:01.943Z,14.24
2023-07-27T04:30:01.952Z,14.18
2023-07-27T04:35:01.837Z,14.11
2023-07-27T04:40:01.631Z,14.08
2023-07-27T04:45:02.152Z,14.08
2023-07-27T04:50:01.980Z,14.05
2023-07-27T04:55:02.181Z,13.99
2023-07-27T05:00:01.510Z,13.96
2023-07-27T05:05:01.670Z,13.92
2023-07-27T05:10:01.683Z,13.94
2023-07-27T05:15:02.157Z,13.92
2023-07-27T05:20:01.542Z,13.93
2023-07-27T05:25:01.699Z,13.94
2023-07-27T05:30:01.736Z,13.9
2023-07-27T05:35:02.041Z,13.89
2023-07-27T05:40:01.939Z,13.83
2023-07-27T05:45:01.274Z,13.84
2023-07-27T05:50:02.186Z,13.83
2023-07-27T05:55:01.821Z,13.86
2023-07-27T06:00:07.180Z,13.97
2023-07-27T06:05:01.398Z,14
2023-07-27T06:10:02.155Z,14.03
2023-07-27T06:15:01.309Z,14.04
2023-07-27T06:20:02.191Z,14.07
2023-07-27T06:25:01.492Z,14.13
2023-07-27T06:30:01.511Z,14.24
2023-07-27T06:35:01.955Z,14.39
2023-07-27T06:40:01.493Z,14.48
2023-07-27T06:45:01.914Z,14.57
2023-07-27T06:50:02.146Z,14.59
2023-07-27T06:55:02.084Z,14.66
2023-07-27T07:00:02.009Z,14.66
2023-07-27T07:05:01.343Z,14.73
2023-07-27T07:10:01.564Z,14.81
2023-07-27T07:15:01.989Z,14.84
2023-07-27T07:20:02.043Z,14.91
2023-07-27T07:25:01.582Z,14.97
2023-07-27T07:30:01.763Z,15.11
2023-07-27T07:35:02.062Z,15.02
2023-07-27T07:40:01.601Z,15.02
2023-07-27T07:45:01.915Z,15.1
2023-07-27T07:50:02.037Z,15.16
2023-07-27T07:55:01.909Z,15.13
2023-07-27T08:00:01.972Z,15.18
2023-07-27T08:05:02.105Z,15.23
2023-07-27T08:10:02.093Z,15.25
2023-07-27T08:15:01.883Z,15.26
2023-07-27T08:20:01.910Z,15.32
2023-07-27T08:25:18.795Z,15.39
2023-07-27T08:30:02.043Z,15.39
2023-07-27T08:35:01.742Z,15.52
2023-07-27T08:40:01.801Z,15.66
2023-07-27T08:45:01.537Z,15.81
2023-07-27T08:50:01.969Z,15.93
2023-07-27T08:55:02.075Z,16
2023-07-27T09:00:01.747Z,16.08
2023-07-27T09:05:01.934Z,16.18
2023-07-27T09:10:01.353Z,16.31
2023-07-27T09:15:01.696Z,16.41
2023-07-27T09:20:02.052Z,16.48
2023-07-27T09:25:01.942Z,16.59
2023-07-27T09:30:01.991Z,16.63
2023-07-27T09:35:02.136Z,16.71
2023-07-27T09:40:02.172Z,16.81
2023-07-27T09:45:01.259Z,16.84
2023-07-27T09:50:02.011Z,16.92
2023-07-27T09:55:02.225Z,17
2023-07-27T10:00:02.060Z,17
2023-07-27T10:05:02.288Z,17
2023-07-27T10:10:01.438Z,17.02
2023-07-27T10:15:01.651Z,17.14
2023-07-27T10:20:01.986Z,17.14
2023-07-27T10:25:01.457Z,17.2
2023-07-27T10:30:02.113Z,17.29
2023-07-27T10:35:01.500Z,17.38
2023-07-27T10:40:01.701Z,17.45
2023-07-27T10:45:02.132Z,17.45
2023-07-27T10:50:02.066Z,17.76
2023-07-27T10:55:02.215Z,17.79
2023-07-27T11:00:01.591Z,17.97
2023-07-27T11:05:01.968Z,18.18
2023-07-27T11:10:01.368Z,18.26
2023-07-27T11:15:01.870Z,18.19
2023-07-27T11:20:01.610Z,18.15
2023-07-27T11:25:01.821Z,18.09
2023-07-27T11:30:01.909Z,17.96
2023-07-27T11:35:01.268Z,17.93
2023-07-27T11:40:01.582Z,17.93
2023-07-27T11:45:01.538Z,17.99
2023-07-27T11:50:01.776Z,18.11
2023-07-27T11:55:01.980Z,18.14
2023-07-27T12:00:02.023Z,18.09
2023-07-27T12:05:01.265Z,17.97
2023-07-27T12:10:17.784Z,17.97
2023-07-27T12:15:01.894Z,18.1
2023-07-27T12:20:10.105Z,18.21
2023-07-27T12:25:42.705Z,18.24
2023-07-27T12:30:21.029Z,18.17
2023-07-27T12:35:26.441Z,18.22
2023-07-27T12:40:10.285Z,18.13
2023-07-27T12:45:02.269Z,18.08
2023-07-27T12:50:01.494Z,18.14
2023-07-27T12:55:01.255Z,18.17
2023-07-27T13:00:01.652Z,18.17
2023-07-27T13:05:02.163Z,18.25
2023-07-27T13:10:01.678Z,18.23
2023-07-27T13:15:02.077Z,18.28
2023-07-27T13:20:01.705Z,18.28
2023-07-27T13:30:01.398Z,18.53
2023-07-27T13:35:01.865Z,18.4
2023-07-27T13:40:01.993Z,18.46
2023-07-27T13:45:01.796Z,18.44
2023-07-27T13:50:02.233Z,18.46
2023-07-27T13:55:01.605Z,18.51
2023-07-27T14:00:02.104Z,18.64
2023-07-27T14:05:01.316Z,18.78
2023-07-27T14:10:01.863Z,18.84
2023-07-27T14:15:02.144Z,18.87
2023-07-27T14:20:01.443Z,18.87
2023-07-27T14:25:01.796Z,18.87
2023-07-27T14:30:01.911Z,18.8
2023-07-27T14:35:01.788Z,18.74
2023-07-27T14:40:02.227Z,18.7
2023-07-27T14:45:02.248Z,18.56
2023-07-27T14:50:01.777Z,18.56
2023-07-27T14:55:02.176Z,18.54
2023-07-27T15:00:10.811Z,18.59
2023-07-27T15:05:01.925Z,18.62
2023-07-27T15:10:03.947Z,18.63
2023-07-27T15:15:02.246Z,18.63
2023-07-27T15:20:01.331Z,18.57
2023-07-27T15:25:01.585Z,18.58
2023-07-27T15:30:02.122Z,18.62
2023-07-27T15:35:01.959Z,18.64
2023-07-27T15:40:02.095Z,18.67
2023-07-27T15:45:02.186Z,18.68
2023-07-27T15:50:02.186Z,18.69
2023-07-27T15:55:01.881Z,18.69
2023-07-27T16:00:02.252Z,18.76
2023-07-27T16:05:01.339Z,18.59
2023-07-27T16:10:02.113Z,18.55
2023-07-27T16:15:02.118Z,18.54
2023-07-27T16:20:02.164Z,18.55
2023-07-27T16:25:01.425Z,18.56
2023-07-27T16:30:01.800Z,18.62
2023-07-27T16:35:01.950Z,18.62
2023-07-27T16:40:02.127Z,18.64
2023-07-27T16:45:02.276Z,18.63
2023-07-27T16:50:01.271Z,18.66
2023-07-27T16:55:01.525Z,18.67
2023-07-27T17:00:01.752Z,18.69
2023-07-27T17:05:02.020Z,18.68
2023-07-27T17:10:02.183Z,18.62
2023-07-27T17:15:01.630Z,18.55
2023-07-27T17:20:02.158Z,18.56
2023-07-27T17:25:01.959Z,18.54
2023-07-27T17:30:02.052Z,18.5
2023-07-27T17:35:01.362Z,18.47
2023-07-27T17:40:02.153Z,18.48
2023-07-27T17:45:01.939Z,18.44
2023-07-27T17:50:01.932Z,18.4
2023-07-27T17:55:01.968Z,18.41
2023-07-27T18:00:01.719Z,18.35
2023-07-27T18:05:02.069Z,18.3
2023-07-27T18:10:01.318Z,18.29
2023-07-27T18:15:01.542Z,18.26
2023-07-27T18:20:01.909Z,18.24
2023-07-27T18:25:01.904Z,18.21
2023-07-27T18:30:01.967Z,18.17
2023-07-27T18:35:02.120Z,18.12
2023-07-27T18:40:02.084Z,18.09
2023-07-27T18:45:02.125Z,18.06
2023-07-27T18:50:02.117Z,18.03
2023-07-27T18:55:02.108Z,18
2023-07-27T19:00:01.914Z,18
2023-07-27T19:05:01.413Z,17.92
2023-07-27T19:10:01.969Z,17.91
2023-07-27T19:15:01.961Z,17.85
2023-07-27T19:20:02.009Z,17.83
2023-07-27T19:25:02.069Z,17.82
2023-07-27T19:30:01.954Z,17.77
2023-07-27T19:35:01.954Z,17.79
2023-07-27T19:40:01.992Z,17.75
2023-07-27T19:45:02.057Z,17.73
2023-07-27T19:50:04.963Z,17.65
2023-07-27T19:55:02.156Z,17.63
2023-07-27T20:00:02.091Z,17.63
2023-07-27T20:05:02.143Z,17.59
2023-07-27T20:10:01.316Z,17.51
2023-07-27T20:15:01.481Z,17.35
2023-07-27T20:20:01.829Z,17.35
2023-07-27T20:25:01.987Z,17.25
2023-07-27T20:30:01.455Z,17.21
2023-07-27T20:35:01.847Z,17.09
2023-07-27T20:40:01.941Z,17.02
2023-07-27T20:45:02.002Z,16.89
2023-07-27T20:50:02.063Z,16.85
2023-07-27T20:55:01.250Z,16.77
2023-07-27T21:00:01.523Z,16.75
2023-07-27T21:05:01.927Z,16.69
2023-07-27T21:10:02.136Z,16.67
2023-07-27T21:15:02.249Z,16.61
2023-07-27T21:20:01.433Z,16.57
2023-07-27T21:25:01.735Z,16.56
2023-07-27T21:30:01.861Z,16.49
2023-07-27T21:35:02.044Z,16.47
2023-07-27T21:40:12.909Z,16.47
2023-07-27T21:45:01.562Z,16.44
2023-07-27T21:50:03.071Z,16.44
2023-07-27T21:55:02.148Z,16.41
2023-07-27T22:00:02.138Z,16.4
2023-07-27T22:05:01.818Z,16.35
2023-07-27T22:10:02.150Z,16.35
2023-07-27T22:15:02.069Z,16.34
2023-07-27T22:20:02.119Z,16.36
2023-07-27T22:25:01.918Z,16.31
2023-07-27T22:30:02.140Z,16.31
2023-07-27T22:35:02.069Z,16.3
2023-07-27T22:40:02.066Z,16.31
2023-07-27T22:45:02.110Z,16.26
2023-07-27T22:50:02.232Z,16.27
2023-07-27T22:55:01.294Z,16.25
2023-07-27T23:00:01.293Z,16.22
2023-07-27T23:05:01.724Z,16.24
2023-07-27T23:10:01.957Z,16.24
2023-07-27T23:15:04.524Z,16.19
2023-07-27T23:20:02.152Z,16.25
2023-07-27T23:25:02.177Z,16.21
2023-07-27T23:30:02.063Z,16.22
2023-07-27T23:35:02.220Z,16.2
2023-07-27T23:40:01.359Z,16.21
2023-07-27T23:45:01.385Z,16.19
2023-07-27T23:50:01.698Z,16.18
2023-07-27T23:55:01.950Z,16.21
